Time;durP1;ratioP1;P1;durP2;ratioP2;P2;SDS_P1;SDS_P2;PMS_P1;PMS_P2;Temp;Humidity;BMP_temperature;BMP_pressure;BME280_temperature;BME280_humidity;BME280_pressure;Samples;Min_cycle;Max_cycle;Signal;HPM_P1;HPM_P2
2023/06/09 00:00:50;;;;;;;4.13;3.07;;;;;;;;;;5118775;28;20215;-70
2023/06/09 00:03:21;;;;;;;3.20;2.90;;;;;;;;;;5118389;28;20236;-69
2023/06/09 00:05:49;;;;;;;3.10;2.80;;;;;;;;;;5117645;28;20599;-70
2023/06/09 00:08:18;;;;;;;3.27;2.97;;;;;;;;;;5118177;28;20243;-71
2023/06/09 00:10:46;;;;;;;3.00;2.80;;;;;;;;;;5118274;28;20288;-70
2023/06/09 00:13:17;;;;;;;3.40;3.10;;;;;;;;;;5118267;28;20206;-72
2023/06/09 00:15:45;;;;;;;3.07;2.63;;;;;;;;;;5118423;28;20227;-72
2023/06/09 00:18:15;;;;;;;4.10;2.80;;;;;;;;;;5118485;28;20208;-72
2023/06/09 00:20:44;;;;;;;4.80;2.60;;;;;;;;;;5118200;28;20214;-71
2023/06/09 00:23:13;;;;;;;3.47;2.80;;;;;;;;;;5118075;28;20377;-71
2023/06/09 00:25:41;;;;;;;2.60;2.40;;;;;;;;;;5117740;28;20221;-71
2023/06/09 00:28:10;;;;;;;3.77;3.33;;;;;;;;;;5118572;28;20234;-69
2023/06/09 00:30:40;;;;;;;5.67;2.97;;;;;;;;;;5118185;28;20272;-71
2023/06/09 00:33:08;;;;;;;3.93;2.33;;;;;;;;;;5118130;28;20299;-71
2023/06/09 00:35:36;;;;;;;5.73;2.73;;;;;;;;;;5118172;28;20231;-71
2023/06/09 00:38:04;;;;;;;4.33;3.10;;;;;;;;;;5118004;28;20206;-71
2023/06/09 00:40:33;;;;;;;2.77;2.57;;;;;;;;;;5117798;28;20582;-71
2023/06/09 00:43:01;;;;;;;3.73;2.70;;;;;;;;;;5118233;28;20237;-72
2023/06/09 00:45:32;;;;;;;3.37;3.07;;;;;;;;;;5117879;28;20230;-71
2023/06/09 00:48:01;;;;;;;2.23;2.07;;;;;;;;;;5115491;28;20207;-72
2023/06/09 00:50:30;;;;;;;3.50;3.13;;;;;;;;;;5107106;28;20202;-71
2023/06/09 00:52:59;;;;;;;2.93;2.67;;;;;;;;;;5117601;28;20321;-72
2023/06/09 00:55:28;;;;;;;3.13;2.57;;;;;;;;;;5117878;28;20234;-71
2023/06/09 00:57:56;;;;;;;2.90;2.60;;;;;;;;;;5118081;28;20293;-71
2023/06/09 01:00:27;;;;;;;4.07;2.77;;;;;;;;;;5118127;28;20209;-72
2023/06/09 01:03:00;;;;;;;4.50;2.50;;;;;;;;;;5117685;28;20214;-71
2023/06/09 01:05:32;;;;;;;3.87;2.50;;;;;;;;;;5117815;28;20634;-72
2023/06/09 01:08:03;;;;;;;2.70;2.50;;;;;;;;;;5117920;28;20204;-72
2023/06/09 01:10:35;;;;;;;3.53;3.00;;;;;;;;;;5117752;28;20205;-72
2023/06/09 01:13:07;;;;;;;5.20;2.37;;;;;;;;;;5117747;28;20225;-72
2023/06/09 01:15:36;;;;;;;3.67;2.70;;;;;;;;;;5117599;28;20698;-72
2023/06/09 01:18:04;;;;;;;4.40;2.80;;;;;;;;;;5121697;28;20209;-72
2023/06/09 01:20:39;;;;;;;2.90;2.57;;;;;;;;;;5121667;28;20261;-72
2023/06/09 01:23:08;;;;;;;3.17;2.60;;;;;;;;;;5121271;28;20289;-72
2023/06/09 01:25:41;;;;;;;3.07;2.67;;;;;;;;;;5120974;28;20315;-72
2023/06/09 01:28:11;;;;;;;2.90;2.57;;;;;;;;;;5121409;28;20210;-72
2023/06/09 01:30:40;;;;;;;6.73;2.70;;;;;;;;;;5121585;28;20291;-72
2023/06/09 01:33:09;;;;;;;2.70;2.50;;;;;;;;;;5121311;28;20612;-72
2023/06/09 01:35:38;;;;;;;3.13;2.50;;;;;;;;;;5121356;28;20266;-71
2023/06/09 01:38:07;;;;;;;3.37;2.60;;;;;;;;;;5121239;28;20287;-71
2023/06/09 01:40:36;;;;;;;3.47;2.37;;;;;;;;;;5121238;28;20213;-71
2023/06/09 01:43:06;;;;;;;3.03;2.60;;;;;;;;;;5121244;28;20216;-72
2023/06/09 01:45:34;;;;;;;4.37;2.70;;;;;;;;;;5120883;28;20239;-72
2023/06/09 01:48:05;;;;;;;2.50;2.33;;;;;;;;;;5121050;28;20210;-71
2023/06/09 01:50:38;;;;;;;2.80;2.50;;;;;;;;;;5121253;28;20264;-71
2023/06/09 01:53:09;;;;;;;3.40;2.30;;;;;;;;;;5120626;28;20639;-71
2023/06/09 01:55:39;;;;;;;3.67;2.63;;;;;;;;;;5120557;28;20226;-72
2023/06/09 01:58:16;;;;;;;3.87;2.10;;;;;;;;;;5120748;28;20212;-71
2023/06/09 02:00:45;;;;;;;2.40;2.20;;;;;;;;;;5120801;28;20214;-72
2023/06/09 02:03:16;;;;;;;3.53;2.80;;;;;;;;;;5121000;28;20207;-73
2023/06/09 02:05:44;;;;;;;4.37;2.43;;;;;;;;;;5120521;28;20238;-71
2023/06/09 02:08:13;;;;;;;2.70;2.50;;;;;;;;;;5120477;28;20243;-72
2023/06/09 02:10:41;;;;;;;2.50;2.30;;;;;;;;;;5120272;28;20269;-72
2023/06/09 02:13:14;;;;;;;3.13;2.33;;;;;;;;;;5120579;28;20234;-71
2023/06/09 02:15:43;;;;;;;2.80;2.43;;;;;;;;;;5120604;28;20582;-72
2023/06/09 02:18:11;;;;;;;2.57;2.37;;;;;;;;;;5120374;28;20566;-72
2023/06/09 02:20:40;;;;;;;2.57;2.37;;;;;;;;;;5120305;28;20230;-72
2023/06/09 02:23:09;;;;;;;3.60;2.67;;;;;;;;;;5120240;28;20697;-72
2023/06/09 02:25:37;;;;;;;3.00;2.50;;;;;;;;;;5119722;28;20234;-71
2023/06/09 02:28:06;;;;;;;2.97;2.33;;;;;;;;;;5119441;28;20298;-71
2023/06/09 02:30:36;;;;;;;2.57;2.33;;;;;;;;;;5120093;28;20211;-72
2023/06/09 02:33:04;;;;;;;2.93;2.47;;;;;;;;;;5120449;28;20215;-71
2023/06/09 02:35:33;;;;;;;8.37;2.83;;;;;;;;;;5120144;28;20219;-72
2023/06/09 02:38:05;;;;;;;2.50;2.20;;;;;;;;;;5119954;28;20206;-70
2023/06/09 02:40:33;;;;;;;4.30;2.30;;;;;;;;;;5119909;28;20210;-70
2023/06/09 02:43:01;;;;;;;3.63;2.80;;;;;;;;;;5119966;28;20229;-71
2023/06/09 02:45:30;;;;;;;2.70;2.30;;;;;;;;;;5119701;28;20234;-72
2023/06/09 02:47:59;;;;;;;2.87;2.47;;;;;;;;;;5119718;27;20207;-72
2023/06/09 02:50:27;;;;;;;2.60;2.30;;;;;;;;;;5108570;28;20286;-72
2023/06/09 02:52:56;;;;;;;6.17;2.40;;;;;;;;;;5119486;28;20740;-72
2023/06/09 02:55:24;;;;;;;3.27;2.17;;;;;;;;;;5119558;28;20258;-72
2023/06/09 02:57:53;;;;;;;3.90;2.93;;;;;;;;;;5119652;28;20251;-72
2023/06/09 03:00:21;;;;;;;2.87;2.63;;;;;;;;;;5119776;27;20246;-71
2023/06/09 03:02:51;;;;;;;2.47;2.27;;;;;;;;;;5119825;28;20209;-72
2023/06/09 03:05:21;;;;;;;3.03;2.63;;;;;;;;;;5119259;28;20327;-72
2023/06/09 03:07:49;;;;;;;2.67;2.47;;;;;;;;;;5119401;28;20214;-71
2023/06/09 03:10:17;;;;;;;2.50;2.30;;;;;;;;;;5119030;28;20207;-72
2023/06/09 03:12:45;;;;;;;3.97;2.80;;;;;;;;;;5119638;28;20298;-71
2023/06/09 03:15:15;;;;;;;3.53;2.43;;;;;;;;;;5119414;28;20227;-71
2023/06/09 03:17:43;;;;;;;2.67;2.43;;;;;;;;;;5119262;28;20297;-72
2023/06/09 03:20:11;;;;;;;4.30;2.50;;;;;;;;;;5119371;28;20211;-72
2023/06/09 03:22:41;;;;;;;2.50;2.30;;;;;;;;;;5119376;28;20238;-72
2023/06/09 03:25:10;;;;;;;6.13;2.80;;;;;;;;;;5118441;28;20318;-72
2023/06/09 03:27:38;;;;;;;3.27;2.60;;;;;;;;;;5118922;28;20204;-72
2023/06/09 03:30:07;;;;;;;2.67;2.47;;;;;;;;;;5118848;28;20211;-72
2023/06/09 03:32:35;;;;;;;3.90;2.53;;;;;;;;;;5119064;28;20207;-71
2023/06/09 03:35:04;;;;;;;2.40;2.20;;;;;;;;;;5118826;28;20260;-72
2023/06/09 03:37:32;;;;;;;2.47;2.23;;;;;;;;;;5118981;28;20209;-72
2023/06/09 03:40:04;;;;;;;2.63;2.40;;;;;;;;;;5118504;28;20263;-72
2023/06/09 03:42:32;;;;;;;2.57;2.30;;;;;;;;;;5118716;28;20680;-72
2023/06/09 03:45:01;;;;;;;3.53;2.43;;;;;;;;;;5118563;28;20227;-71
2023/06/09 03:47:29;;;;;;;3.50;2.50;;;;;;;;;;5118631;28;20369;-72
2023/06/09 03:49:57;;;;;;;2.60;2.40;;;;;;;;;;5118586;28;20661;-71
2023/06/09 03:52:27;;;;;;;4.07;2.13;;;;;;;;;;5118429;28;20692;-71
2023/06/09 03:54:55;;;;;;;2.87;2.33;;;;;;;;;;5118073;28;20207;-72
2023/06/09 03:57:25;;;;;;;3.53;2.67;;;;;;;;;;5118632;28;20203;-71
2023/06/09 03:59:53;;;;;;;5.40;2.50;;;;;;;;;;5118695;28;20207;-71
2023/06/09 04:02:21;;;;;;;3.97;2.97;;;;;;;;;;5118697;28;20291;-69
2023/06/09 04:04:49;;;;;;;3.30;2.97;;;;;;;;;;5118550;28;20235;-69
2023/06/09 04:07:17;;;;;;;4.30;2.93;;;;;;;;;;5118356;28;20215;-72
2023/06/09 04:09:46;;;;;;;10.50;3.30;;;;;;;;;;5118294;28;20214;-70
2023/06/09 04:12:14;;;;;;;7.63;3.43;;;;;;;;;;5118662;28;20215;-70
2023/06/09 04:14:43;;;;;;;3.80;3.20;;;;;;;;;;5118279;28;20682;-72
2023/06/09 04:17:11;;;;;;;4.53;3.40;;;;;;;;;;5118462;28;20224;-72
2023/06/09 04:19:40;;;;;;;4.77;2.73;;;;;;;;;;5118495;28;20207;-71
2023/06/09 04:22:10;;;;;;;5.57;3.30;;;;;;;;;;5118141;28;20296;-72
2023/06/09 04:24:38;;;;;;;9.30;3.50;;;;;;;;;;5117778;28;20208;-71
2023/06/09 04:27:07;;;;;;;6.03;3.17;;;;;;;;;;5117993;28;20221;-71
2023/06/09 04:29:35;;;;;;;5.80;3.13;;;;;;;;;;5118122;28;20208;-71
2023/06/09 04:32:07;;;;;;;5.50;2.97;;;;;;;;;;5118231;28;20272;-71
2023/06/09 04:34:39;;;;;;;4.43;3.30;;;;;;;;;;5118350;28;20219;-70
2023/06/09 04:37:08;;;;;;;6.03;3.37;;;;;;;;;;5117912;28;20229;-72
2023/06/09 04:39:36;;;;;;;3.87;3.20;;;;;;;;;;5117997;28;20204;-72
2023/06/09 04:42:05;;;;;;;4.60;3.07;;;;;;;;;;5117875;28;20684;-72
2023/06/09 04:44:33;;;;;;;7.80;3.97;;;;;;;;;;5117984;28;20209;-72
2023/06/09 04:47:03;;;;;;;6.30;3.50;;;;;;;;;;5117795;28;20312;-71
2023/06/09 04:49:35;;;;;;;4.20;3.03;;;;;;;;;;5117015;28;20697;-72
2023/06/09 04:52:03;;;;;;;6.00;3.30;;;;;;;;;;5111643;28;20202;-72
2023/06/09 04:54:31;;;;;;;5.53;3.03;;;;;;;;;;5121434;28;20671;-71
2023/06/09 04:57:01;;;;;;;4.03;2.90;;;;;;;;;;5121980;28;20222;-71
2023/06/09 04:59:29;;;;;;;5.80;2.83;;;;;;;;;;5121912;28;20291;-72
2023/06/09 05:01:58;;;;;;;4.77;2.90;;;;;;;;;;5122133;28;20211;-71
2023/06/09 05:04:26;;;;;;;2.60;2.40;;;;;;;;;;5122011;28;20217;-71
2023/06/09 05:06:55;;;;;;;4.77;2.33;;;;;;;;;;5121871;27;20229;-71
2023/06/09 05:09:23;;;;;;;3.20;2.50;;;;;;;;;;5121702;28;20206;-72
2023/06/09 05:11:52;;;;;;;3.60;2.67;;;;;;;;;;5121562;28;20263;-71
2023/06/09 05:14:20;;;;;;;2.83;2.57;;;;;;;;;;5124192;27;20285;-70
2023/06/09 05:16:49;;;;;;;2.67;2.23;;;;;;;;;;5120987;28;20262;-71
2023/06/09 05:19:17;;;;;;;5.20;2.73;;;;;;;;;;5120937;28;20743;-71
2023/06/09 05:21:46;;;;;;;7.53;2.70;;;;;;;;;;5123411;27;20655;-70
2023/06/09 05:24:18;;;;;;;2.93;2.63;;;;;;;;;;5120474;28;20600;-65
2023/06/09 05:26:46;;;;;;;4.23;2.37;;;;;;;;;;5118528;28;20938;-64
2023/06/09 05:29:15;;;;;;;3.53;2.10;;;;;;;;;;5118895;28;20231;-64
2023/06/09 05:31:43;;;;;;;4.23;2.37;;;;;;;;;;5121639;27;20285;-64
2023/06/09 05:34:12;;;;;;;5.73;2.50;;;;;;;;;;5122586;27;20192;-65
2023/06/09 05:36:40;;;;;;;4.73;2.23;;;;;;;;;;5121748;27;20212;-65
2023/06/09 05:39:08;;;;;;;3.97;2.80;;;;;;;;;;5120837;27;20223;-64
2023/06/09 05:41:38;;;;;;;5.33;3.17;;;;;;;;;;5125071;27;20205;-65
2023/06/09 05:44:09;;;;;;;7.60;3.07;;;;;;;;;;5131809;27;20215;-64
2023/06/09 05:46:37;;;;;;;5.67;2.83;;;;;;;;;;5137239;27;20660;-64
2023/06/09 05:49:05;;;;;;;3.23;2.53;;;;;;;;;;5110054;28;20291;-64
2023/06/09 05:51:34;;;;;;;5.30;2.60;;;;;;;;;;5121084;28;20207;-64
2023/06/09 05:54:03;;;;;;;4.07;2.80;;;;;;;;;;5119859;28;20225;-64
2023/06/09 05:56:31;;;;;;;5.87;2.57;;;;;;;;;;5122356;27;20221;-64
2023/06/09 05:59:04;;;;;;;4.60;2.57;;;;;;;;;;5120557;28;20196;-64
2023/06/09 06:01:32;;;;;;;5.13;2.57;;;;;;;;;;5117592;27;20279;-64
2023/06/09 06:04:00;;;;;;;4.63;2.50;;;;;;;;;;5118709;28;20196;-64
2023/06/09 06:06:29;;;;;;;4.80;2.50;;;;;;;;;;5116897;28;20228;-64
2023/06/09 06:08:58;;;;;;;3.20;2.90;;;;;;;;;;5120517;27;20205;-64
2023/06/09 06:11:26;;;;;;;7.13;2.83;;;;;;;;;;5120275;27;20310;-64
2023/06/09 06:13:54;;;;;;;4.60;3.13;;;;;;;;;;5122100;27;20202;-63
2023/06/09 06:16:24;;;;;;;8.27;2.87;;;;;;;;;;5120543;27;20221;-64
2023/06/09 06:18:52;;;;;;;5.30;3.17;;;;;;;;;;5120611;27;20197;-64
2023/06/09 06:21:21;;;;;;;3.80;2.90;;;;;;;;;;5122264;27;20289;-64
2023/06/09 06:23:49;;;;;;;6.67;3.07;;;;;;;;;;5118663;28;20231;-64
2023/06/09 06:26:17;;;;;;;7.83;4.20;;;;;;;;;;5121563;27;20307;-64
2023/06/09 06:28:46;;;;;;;3.33;2.60;;;;;;;;;;5119559;28;20282;-64
2023/06/09 06:31:16;;;;;;;4.47;2.63;;;;;;;;;;5121684;27;20626;-64
2023/06/09 06:33:46;;;;;;;5.23;2.77;;;;;;;;;;5120156;28;20200;-64
2023/06/09 06:36:21;;;;;;;4.43;2.97;;;;;;;;;;5117790;27;20590;-64
2023/06/09 06:38:49;;;;;;;4.93;3.13;;;;;;;;;;5119029;28;20229;-64
2023/06/09 06:41:17;;;;;;;5.57;3.60;;;;;;;;;;5119158;27;20570;-64
2023/06/09 06:43:45;;;;;;;10.27;2.93;;;;;;;;;;5116388;28;20196;-64
2023/06/09 06:46:15;;;;;;;4.83;3.07;;;;;;;;;;5119523;27;20242;-64
2023/06/09 06:48:43;;;;;;;7.20;2.53;;;;;;;;;;5120408;27;20197;-64
2023/06/09 06:51:13;;;;;;;6.67;2.47;;;;;;;;;;5119335;28;20214;-64
2023/06/09 06:53:41;;;;;;;6.67;3.03;;;;;;;;;;5105530;28;20233;-64
2023/06/09 06:56:10;;;;;;;4.17;2.93;;;;;;;;;;5108259;27;20223;-64
2023/06/09 06:58:38;;;;;;;6.33;2.60;;;;;;;;;;5139934;27;20566;-64
2023/06/09 07:01:06;;;;;;;4.93;2.30;;;;;;;;;;5130462;27;20205;-64
2023/06/09 07:03:35;;;;;;;6.50;2.90;;;;;;;;;;5118619;28;20277;-64
2023/06/09 07:06:04;;;;;;;4.27;2.50;;;;;;;;;;5119677;28;20234;-63
2023/06/09 07:08:33;;;;;;;4.37;2.77;;;;;;;;;;5119108;28;20566;-64
2023/06/09 07:11:02;;;;;;;3.60;2.40;;;;;;;;;;5119328;28;20218;-64
2023/06/09 07:13:30;;;;;;;2.67;2.00;;;;;;;;;;5119375;28;20225;-64
2023/06/09 07:16:00;;;;;;;4.90;2.47;;;;;;;;;;5119264;28;20227;-64
2023/06/09 07:18:29;;;;;;;4.73;2.53;;;;;;;;;;5119731;27;20253;-63
2023/06/09 07:20:57;;;;;;;3.23;2.30;;;;;;;;;;5119161;28;20236;-64
2023/06/09 07:23:25;;;;;;;6.10;2.93;;;;;;;;;;5119357;28;20204;-64
2023/06/09 07:25:55;;;;;;;7.23;2.90;;;;;;;;;;5118419;28;20269;-64
2023/06/09 07:28:23;;;;;;;4.60;2.87;;;;;;;;;;5131800;27;20222;-64
2023/06/09 07:30:52;;;;;;;9.93;2.80;;;;;;;;;;5119692;27;20217;-64
2023/06/09 07:33:20;;;;;;;3.20;2.70;;;;;;;;;;5109185;27;20296;-64
2023/06/09 07:35:50;;;;;;;3.60;2.23;;;;;;;;;;5114919;27;20224;-64
2023/06/09 07:38:20;;;;;;;3.33;2.20;;;;;;;;;;5134386;27;20209;-63
2023/06/09 07:40:49;;;;;;;3.60;2.20;;;;;;;;;;5114631;28;20687;-64
2023/06/09 07:43:18;;;;;;;2.33;2.10;;;;;;;;;;5113190;28;20567;-63
2023/06/09 07:45:47;;;;;;;3.60;2.20;;;;;;;;;;5115224;28;20220;-63
2023/06/09 07:48:15;;;;;;;4.30;2.37;;;;;;;;;;5117781;28;20268;-63
2023/06/09 07:50:43;;;;;;;2.80;2.50;;;;;;;;;;5111994;28;20211;-63
2023/06/09 07:53:27;;;;;;;3.93;2.50;;;;;;;;;;5135906;27;20236;-64
2023/06/09 07:55:56;;;;;;;5.30;2.43;;;;;;;;;;5137304;27;20224;-64
2023/06/09 07:58:26;;;;;;;2.77;1.93;;;;;;;;;;5118606;27;20197;-64
2023/06/09 08:00:54;;;;;;;2.67;2.00;;;;;;;;;;5117996;28;20284;-63
2023/06/09 08:03:22;;;;;;;3.87;2.30;;;;;;;;;;5119969;27;20198;-64
2023/06/09 08:05:50;;;;;;;3.40;2.53;;;;;;;;;;5118091;27;20719;-69
2023/06/09 08:08:19;;;;;;;2.90;2.33;;;;;;;;;;5113973;28;20225;-70
2023/06/09 08:10:47;;;;;;;3.07;2.37;;;;;;;;;;5117821;28;20211;-70
2023/06/09 08:13:15;;;;;;;4.93;2.40;;;;;;;;;;5117940;28;20290;-72
2023/06/09 08:15:45;;;;;;;6.30;2.83;;;;;;;;;;5108486;28;20237;-72
2023/06/09 08:18:13;;;;;;;2.37;2.17;;;;;;;;;;5114839;28;20200;-71
2023/06/09 08:20:41;;;;;;;2.93;2.40;;;;;;;;;;5118198;28;20222;-68
2023/06/09 08:23:10;;;;;;;5.03;2.40;;;;;;;;;;5117361;28;20261;-71
2023/06/09 08:25:38;;;;;;;5.40;2.83;;;;;;;;;;5117156;28;20333;-67
2023/06/09 08:28:09;;;;;;;2.43;2.23;;;;;;;;;;5105631;28;20558;-69
2023/06/09 08:30:37;;;;;;;3.30;2.63;;;;;;;;;;5115495;28;20205;-69
2023/06/09 08:33:07;;;;;;;7.63;2.73;;;;;;;;;;5117846;28;20309;-70
2023/06/09 08:35:35;;;;;;;3.47;2.70;;;;;;;;;;5110491;28;20589;-68
2023/06/09 08:38:03;;;;;;;3.33;3.10;;;;;;;;;;5104508;28;20211;-68
2023/06/09 08:40:32;;;;;;;3.97;2.93;;;;;;;;;;5114762;28;20197;-66
2023/06/09 08:43:01;;;;;;;3.10;2.53;;;;;;;;;;5114924;28;20289;-70
2023/06/09 08:45:30;;;;;;;5.00;2.87;;;;;;;;;;5117290;28;20242;-69
2023/06/09 08:48:00;;;;;;;3.00;2.60;;;;;;;;;;5107591;28;20217;-70
2023/06/09 08:50:34;;;;;;;4.63;3.00;;;;;;;;;;5111348;28;20210;-70
2023/06/09 08:53:03;;;;;;;3.70;2.80;;;;;;;;;;5117187;28;20235;-70
2023/06/09 08:55:34;;;;;;;3.43;3.13;;;;;;;;;;5114384;28;20240;-69
2023/06/09 08:58:03;;;;;;;2.77;2.57;;;;;;;;;;5117497;28;20197;-69
2023/06/09 09:00:31;;;;;;;5.27;3.37;;;;;;;;;;5110987;28;20204;-69
2023/06/09 09:03:00;;;;;;;4.80;3.20;;;;;;;;;;5113537;28;20224;-70
2023/06/09 09:05:28;;;;;;;3.83;2.67;;;;;;;;;;5114345;28;20320;-70
2023/06/09 09:07:58;;;;;;;4.37;2.60;;;;;;;;;;5116086;28;20554;-69
2023/06/09 09:10:27;;;;;;;4.27;2.80;;;;;;;;;;5127976;27;20647;-68
2023/06/09 09:12:56;;;;;;;4.17;2.70;;;;;;;;;;5123995;28;20193;-69
2023/06/09 09:15:25;;;;;;;3.30;2.80;;;;;;;;;;5127060;27;20219;-69
2023/06/09 09:17:53;;;;;;;6.50;3.10;;;;;;;;;;5130688;28;20200;-69
2023/06/09 09:20:31;;;;;;;3.57;2.70;;;;;;;;;;5118211;28;20676;-69
2023/06/09 09:23:01;;;;;;;5.90;3.10;;;;;;;;;;5117068;28;20197;-69
2023/06/09 09:25:30;;;;;;;3.17;2.87;;;;;;;;;;5128303;28;20306;-69
2023/06/09 09:28:02;;;;;;;2.80;2.50;;;;;;;;;;5117385;28;20704;-69
2023/06/09 09:30:43;;;;;;;4.30;3.50;;;;;;;;;;5117310;28;20229;-68
2023/06/09 09:33:12;;;;;;;4.57;2.77;;;;;;;;;;5117999;28;20284;-70
2023/06/09 09:35:43;;;;;;;5.47;3.03;;;;;;;;;;5123346;27;20691;-68
2023/06/09 09:38:16;;;;;;;4.37;2.90;;;;;;;;;;5125912;27;20196;-68
2023/06/09 09:40:45;;;;;;;4.83;3.40;;;;;;;;;;5126939;27;20200;-68
2023/06/09 09:43:13;;;;;;;3.20;2.90;;;;;;;;;;5125848;27;20224;-68
2023/06/09 09:45:43;;;;;;;3.03;2.83;;;;;;;;;;5114996;28;20735;-68
2023/06/09 09:48:12;;;;;;;5.13;3.53;;;;;;;;;;5120477;28;20221;-67
2023/06/09 09:50:41;;;;;;;4.10;3.37;;;;;;;;;;5124988;27;20193;-68
2023/06/09 09:53:10;;;;;;;3.60;2.80;;;;;;;;;;5128107;27;20695;-68
2023/06/09 09:55:42;;;;;;;4.03;3.10;;;;;;;;;;5123655;27;20273;-68
2023/06/09 09:58:10;;;;;;;4.80;2.90;;;;;;;;;;5131522;27;20207;-69
2023/06/09 10:00:39;;;;;;;3.77;3.47;;;;;;;;;;5128967;27;20200;-67
2023/06/09 10:03:09;;;;;;;4.93;3.40;;;;;;;;;;5118210;28;20201;-66
2023/06/09 10:05:39;;;;;;;4.23;3.63;;;;;;;;;;5122750;27;20236;-67
2023/06/09 10:08:09;;;;;;;3.70;3.27;;;;;;;;;;5120598;28;20311;-67
2023/06/09 10:10:37;;;;;;;5.23;3.30;;;;;;;;;;5117765;28;20259;-68
2023/06/09 10:13:08;;;;;;;4.67;3.70;;;;;;;;;;5128327;27;20202;-67
2023/06/09 10:15:36;;;;;;;3.73;3.40;;;;;;;;;;5140840;27;20310;-69
2023/06/09 10:18:05;;;;;;;6.13;3.50;;;;;;;;;;5140954;27;20208;-66
2023/06/09 10:20:34;;;;;;;3.93;3.30;;;;;;;;;;5140820;27;20659;-67
2023/06/09 10:23:02;;;;;;;4.60;3.80;;;;;;;;;;5141101;27;20274;-69
2023/06/09 10:25:30;;;;;;;3.90;3.50;;;;;;;;;;5139905;27;20227;-66
2023/06/09 10:27:58;;;;;;;4.67;3.33;;;;;;;;;;5120361;28;20215;-66
2023/06/09 10:30:28;;;;;;;6.33;3.40;;;;;;;;;;5120047;28;20201;-66
2023/06/09 10:32:58;;;;;;;4.00;3.20;;;;;;;;;;5120263;27;20213;-63
2023/06/09 10:35:28;;;;;;;4.23;3.83;;;;;;;;;;5120345;28;20759;-64
2023/06/09 10:37:58;;;;;;;4.27;3.87;;;;;;;;;;5120154;28;20234;-63
2023/06/09 10:40:35;;;;;;;4.53;4.13;;;;;;;;;;5117248;28;20648;-64
2023/06/09 10:43:22;;;;;;;4.97;4.47;;;;;;;;;;5111871;28;20209;-64
2023/06/09 10:45:53;;;;;;;7.27;4.90;;;;;;;;;;5126300;27;20725;-65
2023/06/09 10:48:42;;;;;;;5.70;4.80;;;;;;;;;;5129570;27;20196;-64
2023/06/09 10:51:29;;;;;;;14.13;8.87;;;;;;;;;;5113281;28;20240;-65
2023/06/09 10:54:16;;;;;;;12.40;6.83;;;;;;;;;;5116647;28;20256;-64
2023/06/09 10:56:47;;;;;;;6.33;5.00;;;;;;;;;;5137599;27;20694;-64
2023/06/09 10:59:31;;;;;;;7.77;4.47;;;;;;;;;;5125596;27;20200;-64
2023/06/09 11:02:18;;;;;;;5.83;4.30;;;;;;;;;;5119467;28;20204;-64
2023/06/09 11:04:52;;;;;;;4.90;4.10;;;;;;;;;;5119282;28;20197;-64
2023/06/09 11:07:22;;;;;;;4.00;3.60;;;;;;;;;;5121801;27;20224;-64
2023/06/09 11:10:11;;;;;;;4.33;3.73;;;;;;;;;;5121852;27;20217;-64
2023/06/09 11:12:42;;;;;;;4.43;3.60;;;;;;;;;;5130468;27;20286;-64
2023/06/09 11:15:11;;;;;;;4.57;4.13;;;;;;;;;;5125292;27;20319;-64
2023/06/09 11:17:40;;;;;;;3.53;3.23;;;;;;;;;;5129300;27;20224;-64
2023/06/09 11:20:14;;;;;;;3.57;3.27;;;;;;;;;;5130290;27;20256;-64
2023/06/09 11:22:59;;;;;;;4.73;3.90;;;;;;;;;;5129364;27;20253;-64
2023/06/09 11:25:37;;;;;;;6.50;3.60;;;;;;;;;;5128886;27;20223;-64
2023/06/09 11:28:17;;;;;;;4.33;3.63;;;;;;;;;;5127680;27;20235;-64
2023/06/09 11:31:11;;;;;;;6.27;3.97;;;;;;;;;;5126743;27;20218;-63
2023/06/09 11:33:44;;;;;;;4.10;3.67;;;;;;;;;;5112919;27;20321;-64
2023/06/09 11:36:17;;;;;;;4.53;4.00;;;;;;;;;;5127823;27;20916;-64
2023/06/09 11:38:46;;;;;;;5.23;4.00;;;;;;;;;;5123893;27;20196;-64
2023/06/09 11:41:14;;;;;;;7.33;3.90;;;;;;;;;;5118820;27;20706;-64
2023/06/09 11:43:50;;;;;;;5.13;4.00;;;;;;;;;;5114032;28;20584;-64
2023/06/09 11:46:18;;;;;;;7.33;4.23;;;;;;;;;;5118818;27;20238;-64
2023/06/09 11:49:03;;;;;;;3.60;3.30;;;;;;;;;;5117002;28;20567;-64
2023/06/09 11:51:46;;;;;;;4.90;3.73;;;;;;;;;;5116020;28;20748;-64
2023/06/09 11:54:16;;;;;;;4.47;4.07;;;;;;;;;;5117350;27;20297;-64
2023/06/09 11:56:46;;;;;;;4.73;3.97;;;;;;;;;;5118242;28;20224;-64
2023/06/09 11:59:17;;;;;;;4.13;3.53;;;;;;;;;;5118123;28;20201;-65
2023/06/09 12:01:54;;;;;;;4.53;4.00;;;;;;;;;;5109930;28;20207;-64
2023/06/09 12:04:22;;;;;;;5.30;4.27;;;;;;;;;;5108706;28;20293;-64
2023/06/09 12:06:51;;;;;;;5.47;4.10;;;;;;;;;;5116662;28;20221;-64
2023/06/09 12:09:22;;;;;;;6.43;3.97;;;;;;;;;;5117986;28;20622;-64
2023/06/09 12:11:55;;;;;;;6.60;4.10;;;;;;;;;;5118713;28;20287;-64
2023/06/09 12:14:23;;;;;;;7.80;3.90;;;;;;;;;;5118583;28;20289;-65
2023/06/09 12:16:51;;;;;;;4.67;3.10;;;;;;;;;;5118259;28;20589;-64
2023/06/09 12:19:25;;;;;;;2.70;2.50;;;;;;;;;;5118448;28;20285;-64
2023/06/09 12:21:54;;;;;;;4.57;2.70;;;;;;;;;;5118333;28;20681;-64
2023/06/09 12:24:28;;;;;;;3.37;3.07;;;;;;;;;;5118122;28;20209;-65
2023/06/09 12:26:56;;;;;;;5.13;3.10;;;;;;;;;;5118346;28;20253;-64
2023/06/09 12:29:28;;;;;;;3.80;3.20;;;;;;;;;;5118244;28;20263;-64
2023/06/09 12:31:56;;;;;;;2.80;2.60;;;;;;;;;;5117881;28;20222;-64
2023/06/09 12:34:25;;;;;;;5.40;3.17;;;;;;;;;;5109180;28;20206;-64
2023/06/09 12:36:54;;;;;;;5.43;2.93;;;;;;;;;;5116209;28;20225;-64
2023/06/09 12:39:23;;;;;;;4.23;2.67;;;;;;;;;;5117555;28;20210;-64
2023/06/09 12:41:55;;;;;;;4.43;3.27;;;;;;;;;;5118119;28;20253;-64
2023/06/09 12:44:27;;;;;;;3.63;3.10;;;;;;;;;;5118350;28;20284;-64
2023/06/09 12:46:57;;;;;;;4.87;2.80;;;;;;;;;;5132654;28;20270;-64
2023/06/09 12:49:30;;;;;;;3.07;2.80;;;;;;;;;;5138523;27;20207;-64
2023/06/09 12:51:58;;;;;;;4.10;2.70;;;;;;;;;;5138592;27;20283;-64
2023/06/09 12:54:28;;;;;;;3.00;2.70;;;;;;;;;;5137941;27;20296;-65
2023/06/09 12:56:57;;;;;;;3.37;2.80;;;;;;;;;;5138562;27;20231;-64
2023/06/09 12:59:28;;;;;;;3.57;3.27;;;;;;;;;;5138493;27;20680;-64
2023/06/09 13:01:56;;;;;;;4.43;3.17;;;;;;;;;;5138673;27;20234;-64
2023/06/09 13:04:24;;;;;;;4.57;3.30;;;;;;;;;;5110187;27;20211;-64
2023/06/09 13:06:53;;;;;;;5.30;3.33;;;;;;;;;;5117813;28;20228;-64
2023/06/09 13:09:21;;;;;;;4.13;3.37;;;;;;;;;;5117659;28;20192;-64
2023/06/09 13:11:49;;;;;;;3.47;3.17;;;;;;;;;;5115149;28;20211;-64
2023/06/09 13:14:19;;;;;;;3.73;3.30;;;;;;;;;;5123024;27;20220;-64
2023/06/09 13:16:47;;;;;;;3.90;3.60;;;;;;;;;;5121273;27;20256;-64
2023/06/09 13:19:16;;;;;;;3.47;3.17;;;;;;;;;;5119938;27;20228;-64
2023/06/09 13:21:44;;;;;;;3.37;3.03;;;;;;;;;;5121790;27;20193;-64
2023/06/09 13:24:12;;;;;;;3.37;3.07;;;;;;;;;;5122205;27;20223;-63
2023/06/09 13:26:41;;;;;;;5.00;3.10;;;;;;;;;;5120924;28;20726;-63
2023/06/09 13:29:10;;;;;;;5.23;3.20;;;;;;;;;;5123348;27;20665;-63
2023/06/09 13:31:39;;;;;;;3.30;3.00;;;;;;;;;;5121343;28;20229;-63
2023/06/09 13:34:08;;;;;;;4.00;2.90;;;;;;;;;;5121261;28;20566;-64
2023/06/09 13:36:36;;;;;;;3.70;3.03;;;;;;;;;;5121453;28;20228;-68
2023/06/09 13:39:05;;;;;;;3.30;3.00;;;;;;;;;;5120956;28;20228;-66
2023/06/09 13:41:33;;;;;;;3.83;3.17;;;;;;;;;;5120755;28;20227;-66
2023/06/09 13:44:02;;;;;;;3.40;3.10;;;;;;;;;;5123906;27;20199;-67
2023/06/09 13:46:31;;;;;;;3.50;3.20;;;;;;;;;;5120944;27;20584;-69
2023/06/09 13:49:03;;;;;;;5.90;3.60;;;;;;;;;;5121382;27;20203;-69
2023/06/09 13:51:34;;;;;;;3.90;3.60;;;;;;;;;;5123149;27;20220;-70
2023/06/09 13:54:02;;;;;;;4.13;3.53;;;;;;;;;;5120401;28;20244;-70
2023/06/09 13:56:30;;;;;;;4.20;3.60;;;;;;;;;;5120998;28;20224;-70
2023/06/09 13:58:58;;;;;;;3.93;3.30;;;;;;;;;;5120854;28;20287;-69
2023/06/09 14:01:27;;;;;;;3.40;3.10;;;;;;;;;;5120728;28;20265;-70
2023/06/09 14:03:55;;;;;;;3.33;2.90;;;;;;;;;;5116045;28;20213;-69
2023/06/09 14:06:27;;;;;;;3.13;2.93;;;;;;;;;;5120712;28;20235;-70
2023/06/09 14:08:58;;;;;;;3.53;3.23;;;;;;;;;;5120380;28;20209;-69
2023/06/09 14:11:27;;;;;;;3.20;3.00;;;;;;;;;;5120708;28;20230;-68
2023/06/09 14:13:55;;;;;;;4.57;4.13;;;;;;;;;;5120549;28;20206;-70
2023/06/09 14:16:23;;;;;;;3.20;2.90;;;;;;;;;;5120400;28;20225;-70
2023/06/09 14:18:55;;;;;;;6.73;3.30;;;;;;;;;;5120688;28;20202;-71
2023/06/09 14:21:27;;;;;;;4.23;2.83;;;;;;;;;;5120530;28;20270;-68
2023/06/09 14:23:55;;;;;;;3.77;3.20;;;;;;;;;;5119388;28;20271;-69
2023/06/09 14:26:23;;;;;;;3.47;3.13;;;;;;;;;;5120051;28;20641;-70
2023/06/09 14:28:51;;;;;;;7.00;3.83;;;;;;;;;;5120265;28;20205;-70
2023/06/09 14:31:20;;;;;;;7.07;4.17;;;;;;;;;;5119933;28;20242;-71
2023/06/09 14:33:48;;;;;;;5.23;3.83;;;;;;;;;;5120455;28;20208;-70
2023/06/09 14:36:16;;;;;;;3.27;2.97;;;;;;;;;;5119846;28;20242;-70
2023/06/09 14:38:46;;;;;;;7.47;4.10;;;;;;;;;;5120117;28;20208;-71
2023/06/09 14:41:14;;;;;;;4.57;3.37;;;;;;;;;;5119898;28;20204;-70
2023/06/09 14:43:43;;;;;;;3.70;3.33;;;;;;;;;;5120187;28;20232;-70
2023/06/09 14:46:11;;;;;;;5.77;3.40;;;;;;;;;;5120037;28;20246;-71
2023/06/09 14:48:39;;;;;;;4.93;3.40;;;;;;;;;;5119871;28;20209;-71
2023/06/09 14:51:07;;;;;;;4.93;4.20;;;;;;;;;;5119630;28;20224;-70
2023/06/09 14:53:35;;;;;;;3.63;3.33;;;;;;;;;;5119454;28;20324;-71
2023/06/09 14:56:05;;;;;;;5.20;4.27;;;;;;;;;;5119668;28;20314;-71
2023/06/09 14:58:33;;;;;;;4.23;3.77;;;;;;;;;;5119882;28;20219;-71